Time;durP1;ratioP1;P1;durP2;ratioP2;P2;SDS_P1;SDS_P2;PMS_P1;PMS_P2;Temp;Humidity;BMP_temperature;BMP_pressure;BME280_temperature;BME280_humidity;BME280_pressure;Samples;Min_cycle;Max_cycle;Signal;HPM_P1;HPM_P2
2020/12/03 00:00:55;;;;;;;228.62;94.45;;;;;;;-8.07;79.05;98168.22;1763442;81;21328;-70
2020/12/03 00:03:31;;;;;;;212.38;87.72;;;;;;;-8.22;79.66;98168.97;1764115;81;21126;-72
2020/12/03 00:06:03;;;;;;;194.77;77.75;;;;;;;-8.22;79.62;98167.16;1764341;81;21625;-72
2020/12/03 00:08:31;;;;;;;138.32;47.43;;;;;;;-8.25;79.36;98158.28;1764488;81;21118;-71
2020/12/03 00:11:00;;;;;;;192.43;70.62;;;;;;;-8.33;79.71;98156.93;1732421;81;21670;-72
2020/12/03 00:13:25;;;;;;;219.13;88.85;;;;;;;-8.41;79.65;98150.34;1763801;81;21145;-72
2020/12/03 00:15:56;;;;;;;162.18;60.43;;;;;;;-8.50;79.72;98153.91;1764475;81;21173;-72
2020/12/03 00:18:28;;;;;;;242.37;101.58;;;;;;;-8.49;79.67;98163.45;1764479;81;21565;-71
2020/12/03 00:20:54;;;;;;;222.22;88.45;;;;;;;-8.58;79.61;98159.95;1764462;81;21119;-73
2020/12/03 00:23:21;;;;;;;250.53;106.70;;;;;;;-8.62;79.84;98156.81;1764548;81;21758;-73
2020/12/03 00:25:47;;;;;;;212.27;84.62;;;;;;;-8.66;79.82;98152.02;1764394;81;21474;-71
2020/12/03 00:28:12;;;;;;;230.00;90.77;;;;;;;-8.57;79.66;98157.65;1764519;81;26200;-71
2020/12/03 00:30:38;;;;;;;80.20;31.60;;;;;;;-8.62;79.14;98148.94;1764453;80;28380;-71
2020/12/03 00:33:04;;;;;;;252.57;102.58;;;;;;;-8.62;79.24;98142.37;1764478;81;26613;-73
2020/12/03 00:35:30;;;;;;;244.80;91.63;;;;;;;-8.81;78.35;98143.38;1764449;81;22009;-71
2020/12/03 00:37:55;;;;;;;211.75;75.00;;;;;;;-8.82;78.71;98143.53;1764383;81;26656;-71
2020/12/03 00:40:21;;;;;;;217.50;74.53;;;;;;;-8.88;78.99;98138.43;1764499;81;26269;-71
2020/12/03 00:42:47;;;;;;;216.27;94.45;;;;;;;-8.93;79.15;98138.55;1764408;81;21566;-71
2020/12/03 00:45:15;;;;;;;239.90;91.10;;;;;;;-8.97;79.61;98134.56;1764470;81;26610;-72
2020/12/03 00:47:41;;;;;;;218.35;78.57;;;;;;;-8.90;79.46;98143.48;1764457;81;21181;-72
2020/12/03 00:50:10;;;;;;;238.82;100.12;;;;;;;-8.82;79.37;98135.16;1764470;81;21070;-72
2020/12/03 00:52:35;;;;;;;245.52;96.42;;;;;;;-8.86;79.08;98131.21;1764579;81;21098;-71
2020/12/03 00:55:01;;;;;;;215.85;95.67;;;;;;;-8.91;78.87;98133.47;1764468;80;28035;-71
2020/12/03 00:57:27;;;;;;;223.70;84.65;;;;;;;-8.86;78.87;98129.08;1764478;81;26660;-72
2020/12/03 00:59:53;;;;;;;273.73;110.20;;;;;;;-8.79;78.86;98127.48;1764467;81;22023;-71
2020/12/03 01:02:18;;;;;;;245.25;98.27;;;;;;;-8.75;78.91;98124.87;1764340;81;26764;-71
2020/12/03 01:04:44;;;;;;;214.32;89.13;;;;;;;-8.74;78.45;98125.69;1764460;81;26248;-71
2020/12/03 01:07:10;;;;;;;236.68;102.67;;;;;;;-8.81;77.86;98119.73;1764451;81;28087;-71
2020/12/03 01:09:38;;;;;;;225.72;93.47;;;;;;;-8.86;77.69;98104.13;1764474;81;26663;-72
2020/12/03 01:12:06;;;;;;;206.57;74.00;;;;;;;-8.83;78.36;98093.30;1764459;81;22001;-71
2020/12/03 01:14:34;;;;;;;202.05;75.57;;;;;;;-8.87;78.51;98094.11;1764538;81;21158;-72
2020/12/03 01:17:10;;;;;;;173.35;68.12;;;;;;;-8.95;78.72;98091.92;1764526;80;21550;-71
2020/12/03 01:19:36;;;;;;;179.32;68.37;;;;;;;-8.97;78.65;98094.71;1763437;81;21518;-71
2020/12/03 01:22:02;;;;;;;152.05;53.20;;;;;;;-8.97;78.77;98085.98;1764447;81;21130;-73
2020/12/03 01:24:28;;;;;;;146.93;54.95;;;;;;;-8.92;78.83;98087.66;1764488;81;21649;-71
2020/12/03 01:26:54;;;;;;;191.55;65.47;;;;;;;-8.95;78.66;98081.42;1764318;81;21046;-71
2020/12/03 01:29:21;;;;;;;230.98;90.25;;;;;;;-8.99;78.62;98075.64;1764438;81;26481;-73
2020/12/03 01:31:47;;;;;;;226.27;94.42;;;;;;;-9.13;78.31;98078.84;1764385;81;21060;-71
2020/12/03 01:34:13;;;;;;;224.00;84.62;;;;;;;-9.17;78.87;98067.81;1764413;80;26654;-71
2020/12/03 01:36:39;;;;;;;221.90;83.15;;;;;;;-9.11;78.60;98065.89;1764404;81;21645;-72
2020/12/03 01:39:05;;;;;;;240.43;93.35;;;;;;;-9.13;78.37;98067.86;1764366;81;26519;-73
2020/12/03 01:41:31;;;;;;;244.32;91.90;;;;;;;-9.18;78.34;98066.17;1764379;81;21487;-72
2020/12/03 01:43:57;;;;;;;224.67;89.13;;;;;;;-9.23;78.57;98064.48;1764419;81;28272;-71
2020/12/03 01:46:22;;;;;;;124.27;45.85;;;;;;;-9.22;78.63;98062.22;1764430;81;26612;-71
2020/12/03 01:49:03;;;;;;;207.35;88.10;;;;;;;-9.19;78.33;98054.02;1764537;81;21667;-71
2020/12/03 01:51:37;;;;;;;215.30;86.90;;;;;;;-9.24;78.05;98047.09;1764366;81;21228;-72
2020/12/03 01:54:12;;;;;;;229.55;88.20;;;;;;;-9.26;78.33;98042.48;1764461;81;21117;-70
2020/12/03 01:57:07;;;;;;;175.90;59.15;;;;;;;-9.20;78.52;98034.49;1764453;81;21059;-71
2020/12/03 01:59:42;;;;;;;223.60;87.80;;;;;;;-9.15;78.21;98032.21;1758681;81;21113;-71
2020/12/03 02:02:12;;;;;;;206.05;77.17;;;;;;;-9.20;78.71;98021.38;1764415;81;21641;-71
2020/12/03 02:04:38;;;;;;;220.35;87.92;;;;;;;-9.12;78.58;98024.05;1764315;81;21546;-72
2020/12/03 02:07:10;;;;;;;218.27;87.72;;;;;;;-9.08;78.66;98016.17;1764349;81;26346;-71
2020/12/03 02:09:36;;;;;;;202.32;79.27;;;;;;;-9.05;78.29;98015.06;1764412;81;21082;-72
2020/12/03 02:12:02;;;;;;;196.02;78.75;;;;;;;-9.05;77.84;98017.20;1764421;80;26682;-73
2020/12/03 02:14:27;;;;;;;173.38;71.75;;;;;;;-9.12;77.91;98010.42;1764345;81;21714;-72
2020/12/03 02:16:53;;;;;;;180.75;72.08;;;;;;;-9.09;77.89;98000.09;1764317;81;26708;-71
2020/12/03 02:19:27;;;;;;;183.52;74.60;;;;;;;-9.19;77.84;98002.83;1764372;81;26357;-72
2020/12/03 02:22:08;;;;;;;214.25;89.77;;;;;;;-9.22;77.97;98011.03;1764016;81;21090;-71
2020/12/03 02:24:39;;;;;;;197.95;78.37;;;;;;;-9.18;78.24;98018.09;1764418;81;21631;-72
2020/12/03 02:27:06;;;;;;;238.28;84.70;;;;;;;-9.07;78.12;98012.56;1764366;81;21097;-71
2020/12/03 02:29:32;;;;;;;211.50;79.80;;;;;;;-9.06;77.75;98029.14;1764307;81;21117;-72
2020/12/03 02:31:58;;;;;;;267.43;103.45;;;;;;;-9.04;77.87;98024.58;1764350;81;26189;-72
2020/12/03 02:34:24;;;;;;;280.20;104.85;;;;;;;-9.08;78.03;98029.30;1732202;81;28393;-71
2020/12/03 02:36:52;;;;;;;299.17;116.75;;;;;;;-9.14;77.34;98025.52;1764407;81;21062;-73
2020/12/03 02:39:19;;;;;;;278.27;106.35;;;;;;;-9.16;77.87;98021.38;1763544;81;21415;-73
2020/12/03 02:41:45;;;;;;;288.82;111.50;;;;;;;-9.12;77.94;98022.24;1764277;81;21157;-72
2020/12/03 02:44:11;;;;;;;107.92;43.98;;;;;;;-9.02;78.44;98018.19;1764383;81;26716;-72
2020/12/03 02:46:36;;;;;;;275.15;101.38;;;;;;;-8.91;77.83;98024.96;1764346;80;28917;-71
2020/12/03 02:49:02;;;;;;;205.90;86.02;;;;;;;-9.12;78.08;98018.30;1764399;81;26524;-73
2020/12/03 02:51:28;;;;;;;216.42;82.25;;;;;;;-9.05;78.41;98028.19;1764362;81;21668;-71
2020/12/03 02:53:53;;;;;;;92.60;37.23;;;;;;;-9.01;78.55;98011.95;1764273;81;27134;-72
2020/12/03 02:56:19;;;;;;;184.18;69.80;;;;;;;-8.91;78.10;98018.39;1764396;81;26175;-71
2020/12/03 02:58:45;;;;;;;118.28;39.73;;;;;;;-8.97;78.05;98013.77;1764311;81;28258;-71
2020/12/03 03:01:11;;;;;;;151.05;59.03;;;;;;;-8.94;78.10;98007.72;1764394;81;26449;-73
2020/12/03 03:03:36;;;;;;;162.37;65.90;;;;;;;-8.98;78.17;97997.19;1764326;80;22048;-73
2020/12/03 03:06:02;;;;;;;171.02;69.85;;;;;;;-8.90;78.40;98001.66;1764340;81;26518;-72
2020/12/03 03:08:28;;;;;;;148.28;60.60;;;;;;;-8.75;78.70;97990.07;1764337;81;26172;-73
2020/12/03 03:10:54;;;;;;;152.25;60.58;;;;;;;-8.60;78.83;97984.05;1764364;80;28250;-71
2020/12/03 03:13:20;;;;;;;159.55;66.72;;;;;;;-8.44;78.89;97988.53;1764419;81;26929;-72
2020/12/03 03:15:45;;;;;;;149.87;58.10;;;;;;;-8.28;79.18;97985.91;1732196;81;22929;-72
2020/12/03 03:18:11;;;;;;;135.75;53.55;;;;;;;-8.09;78.96;97987.91;1764258;81;26807;-71
2020/12/03 03:20:37;;;;;;;123.35;53.02;;;;;;;-8.02;78.51;97980.53;1764338;81;26306;-72
2020/12/03 03:23:03;;;;;;;162.30;64.53;;;;;;;-8.00;78.10;97965.89;1764350;81;28733;-72
2020/12/03 03:25:29;;;;;;;100.70;41.73;;;;;;;-8.02;78.25;97978.39;1764374;81;21157;-71
2020/12/03 03:27:55;;;;;;;131.70;49.77;;;;;;;-8.02;77.93;97972.64;1764357;80;22150;-71
2020/12/03 03:30:20;;;;;;;190.47;77.53;;;;;;;-8.08;77.91;97975.09;1732268;81;26808;-72
2020/12/03 03:32:46;;;;;;;69.75;30.00;;;;;;;-8.16;78.18;97971.13;1732269;81;26771;-71
2020/12/03 03:35:16;;;;;;;130.12;49.18;;;;;;;-8.04;77.96;97972.45;1764377;81;28232;-72
2020/12/03 03:37:42;;;;;;;171.68;66.12;;;;;;;-8.08;78.06;97968.02;1764377;81;21098;-71
2020/12/03 03:40:08;;;;;;;183.22;70.72;;;;;;;-8.11;78.10;97964.91;1764359;81;22143;-73
2020/12/03 03:42:33;;;;;;;177.95;69.25;;;;;;;-8.08;78.42;97964.08;1764263;81;26794;-72
2020/12/03 03:44:59;;;;;;;180.75;71.15;;;;;;;-8.04;78.34;97953.55;1764525;81;26332;-73
2020/12/03 03:47:25;;;;;;;158.63;61.28;;;;;;;-7.94;78.26;97956.04;1764491;81;28233;-72
2020/12/03 03:49:51;;;;;;;178.32;74.00;;;;;;;-7.86;78.29;97956.04;1764544;81;26442;-71
2020/12/03 03:52:16;;;;;;;171.75;68.28;;;;;;;-7.86;78.28;97938.09;1764461;81;22233;-71
2020/12/03 03:54:42;;;;;;;131.03;50.23;;;;;;;-7.96;78.35;97927.24;1764465;80;26548;-72
2020/12/03 03:57:08;;;;;;;139.20;57.20;;;;;;;-7.88;78.06;97925.11;1764467;81;26755;-72
2020/12/03 03:59:33;;;;;;;172.25;66.80;;;;;;;-7.87;78.07;97925.92;1764479;81;28325;-72
2020/12/03 04:01:59;;;;;;;187.32;75.52;;;;;;;-7.89;78.00;97919.52;1764490;80;20912;-71
2020/12/03 04:04:25;;;;;;;187.22;77.60;;;;;;;-7.87;78.13;97918.86;1764449;81;21912;-71
2020/12/03 04:06:51;;;;;;;153.85;60.25;;;;;;;-7.92;77.97;97911.15;1764487;81;26609;-73
2020/12/03 04:09:16;;;;;;;152.70;57.58;;;;;;;-7.88;78.12;97920.34;1764427;81;26916;-71
2020/12/03 04:11:45;;;;;;;181.40;67.47;;;;;;;-7.89;77.87;97923.96;1764506;80;28057;-72
2020/12/03 04:14:11;;;;;;;192.43;71.12;;;;;;;-7.99;77.86;97921.50;1764602;81;21316;-72
2020/12/03 04:16:38;;;;;;;162.97;63.90;;;;;;;-8.01;77.99;97916.41;1764510;81;21346;-72
2020/12/03 04:19:03;;;;;;;155.55;60.55;;;;;;;-8.02;77.84;97917.41;1764332;80;21053;-73
2020/12/03 04:21:29;;;;;;;145.32;57.45;;;;;;;-8.03;77.75;97905.70;1764515;80;26207;-73
2020/12/03 04:23:55;;;;;;;130.87;51.95;;;;;;;-8.01;77.78;97907.70;1764392;81;28364;-73
2020/12/03 04:26:20;;;;;;;131.37;48.17;;;;;;;-8.05;77.63;97901.11;1764533;81;27232;-72
2020/12/03 04:28:46;;;;;;;137.77;56.50;;;;;;;-8.08;78.43;97901.45;1764441;81;22195;-71
2020/12/03 04:31:12;;;;;;;183.07;73.50;;;;;;;-8.01;78.51;97894.55;1764412;81;26545;-72
2020/12/03 04:33:38;;;;;;;128.90;52.53;;;;;;;-7.92;79.03;97892.24;1764442;81;26185;-71
2020/12/03 04:36:04;;;;;;;139.95;58.78;;;;;;;-7.78;78.43;97886.28;1764463;81;28747;-71
2020/12/03 04:38:30;;;;;;;128.20;50.45;;;;;;;-7.68;78.78;97883.50;1764465;81;21101;-71
2020/12/03 04:40:57;;;;;;;128.10;48.08;;;;;;;-7.64;78.60;97874.77;1732416;81;21179;-71
2020/12/03 04:43:46;;;;;;;116.08;42.70;;;;;;;-7.58;78.66;97855.17;1764350;81;21077;-71
2020/12/03 04:46:29;;;;;;;137.85;59.83;;;;;;;-7.51;78.37;97844.30;1764584;81;21197;-72
2020/12/03 04:49:32;;;;;;;129.18;53.92;;;;;;;-7.46;78.59;97845.09;1764537;81;21117;-71
2020/12/03 04:52:24;;;;;;;126.97;48.35;;;;;;;-7.30;78.62;97838.95;1764622;81;21157;-70
2020/12/03 04:55:29;;;;;;;153.72;62.88;;;;;;;-7.29;77.77;97832.69;1763993;81;21906;-72
2020/12/03 04:58:11;;;;;;;314.30;124.87;;;;;;;-7.47;78.09;97841.64;1764020;81;21152;-72
2020/12/03 05:01:00;;;;;;;173.15;68.57;;;;;;;-7.59;77.67;97849.59;1734984;81;21475;-70
2020/12/03 05:03:57;;;;;;;270.15;109.35;;;;;;;-7.67;78.01;97846.98;1764308;81;21050;-72
2020/12/03 05:06:39;;;;;;;227.43;88.47;;;;;;;-7.78;77.57;97839.42;1764550;81;21126;-70
2020/12/03 05:09:22;;;;;;;328.52;119.67;;;;;;;-7.87;77.58;97834.67;1732437;81;21455;-72
2020/12/03 05:11:58;;;;;;;210.55;71.28;;;;;;;-7.90;77.53;97829.76;1764412;81;21154;-72
2020/12/03 05:14:53;;;;;;;346.90;126.40;;;;;;;-7.97;77.93;97827.47;1764347;81;21077;-71
2020/12/03 05:17:58;;;;;;;137.05;56.02;;;;;;;-8.02;79.03;97831.11;1737110;81;21164;-72
2020/12/03 05:20:41;;;;;;;300.50;102.67;;;;;;;-7.94;78.35;97825.84;1764455;81;21049;-70
2020/12/03 05:23:18;;;;;;;157.32;65.62;;;;;;;-8.00;79.22;97831.75;1764432;81;21312;-70
2020/12/03 05:25:45;;;;;;;147.40;68.50;;;;;;;-7.92;79.29;97827.80;1764489;81;21038;-71
2020/12/03 05:28:31;;;;;;;157.15;65.05;;;;;;;-7.88;78.62;97828.27;1764392;81;21550;-72
2020/12/03 05:31:17;;;;;;;166.35;70.70;;;;;;;-7.83;78.77;97826.79;1764505;81;21027;-72
2020/12/03 05:33:43;;;;;;;511.90;202.60;;;;;;;-7.75;78.93;97827.27;1764492;81;21047;-70
2020/12/03 05:36:29;;;;;;;338.73;136.70;;;;;;;-7.75;79.21;97818.05;1764423;81;21144;-70
2020/12/03 05:38:56;;;;;;;242.43;107.58;;;;;;;-7.65;79.15;97817.86;1763860;81;21065;-73
2020/12/03 05:41:22;;;;;;;128.60;58.38;;;;;;;-7.57;79.16;97816.52;1732478;81;21213;-71
2020/12/03 05:43:47;;;;;;;144.32;56.42;;;;;;;-7.46;78.66;97814.81;1764354;80;28271;-71
2020/12/03 05:46:15;;;;;;;162.37;77.12;;;;;;;-7.41;78.72;97809.88;1764440;81;26588;-71
2020/12/03 05:48:41;;;;;;;138.52;59.63;;;;;;;-7.34;78.96;97812.16;1764513;81;21179;-72
2020/12/03 05:51:25;;;;;;;126.05;57.35;;;;;;;-7.21;78.99;97807.13;1732299;81;27063;-71
2020/12/03 05:54:00;;;;;;;141.88;57.93;;;;;;;-7.14;79.39;97809.91;1764369;81;21141;-71
2020/12/03 05:56:26;;;;;;;139.60;61.75;;;;;;;-7.03;79.54;97810.83;1764448;81;21138;-72
2020/12/03 05:58:52;;;;;;;124.07;53.10;;;;;;;-6.93;79.65;97797.42;1764430;81;21550;-71
2020/12/03 06:01:22;;;;;;;113.15;46.50;;;;;;;-6.84;79.17;97795.05;1764467;81;22106;-70
2020/12/03 06:04:14;;;;;;;121.05;47.53;;;;;;;-6.80;78.67;97792.91;1764340;80;21050;-72
2020/12/03 06:06:58;;;;;;;147.98;59.88;;;;;;;-6.89;78.59;97786.38;1729213;83;21164;-73
2020/12/03 06:09:53;;;;;;;146.40;59.18;;;;;;;-6.94;79.08;97771.58;1736879;81;21105;-72
2020/12/03 06:13:02;;;;;;;135.07;57.38;;;;;;;-6.88;79.02;97754.26;1760453;81;21502;-72
2020/12/03 06:15:47;;;;;;;121.60;50.40;;;;;;;-6.88;78.69;97756.89;1760362;81;21705;-71
2020/12/03 06:18:33;;;;;;;127.47;52.48;;;;;;;-6.72;79.01;97767.81;1760424;81;21133;-70
2020/12/03 06:21:16;;;;;;;126.60;51.53;;;;;;;-6.64;78.95;97765.94;1760320;81;21130;-72
2020/12/03 06:24:20;;;;;;;114.28;42.03;;;;;;;-6.59;78.84;97762.75;1748787;80;21452;-71
2020/12/03 06:27:03;;;;;;;130.45;57.20;;;;;;;-6.57;78.18;97773.46;1760388;80;21541;-70
2020/12/03 06:30:18;;;;;;;133.52;54.15;;;;;;;-6.72;78.53;97784.95;1759639;80;21873;-72
2020/12/03 06:33:06;;;;;;;137.20;55.55;;;;;;;-6.70;78.57;97785.58;1760347;81;21133;-72
2020/12/03 06:35:49;;;;;;;125.53;53.90;;;;;;;-6.70;78.84;97771.09;1760287;81;21174;-72
2020/12/03 06:38:37;;;;;;;133.90;53.48;;;;;;;-6.68;78.65;97769.09;1760385;81;21129;-74
2020/12/03 06:41:41;;;;;;;136.07;58.05;;;;;;;-6.62;78.37;97760.48;1760454;81;21945;-72
2020/12/03 06:44:36;;;;;;;136.10;55.05;;;;;;;-6.61;79.16;97758.98;1760071;80;21191;-71
2020/12/03 06:47:36;;;;;;;142.55;56.63;;;;;;;-6.54;78.80;97759.09;1760281;81;21549;-72
2020/12/03 06:50:36;;;;;;;122.50;50.90;;;;;;;-6.56;79.02;97747.92;1759389;81;21034;-72
2020/12/03 06:53:33;;;;;;;130.65;58.08;;;;;;;-6.72;78.56;97754.14;1760291;81;21194;-70
2020/12/03 06:56:16;;;;;;;137.10;56.15;;;;;;;-6.66;78.71;97765.30;1760372;81;21090;-72
2020/12/03 06:59:29;;;;;;;139.68;60.20;;;;;;;-6.71;79.00;97761.05;1760358;81;21988;-72
2020/12/03 07:02:35;;;;;;;133.12;56.75;;;;;;;-6.59;78.46;97760.94;1760447;81;21574;-72
2020/12/03 07:05:44;;;;;;;127.75;49.25;;;;;;;-6.60;78.73;97759.30;1759693;80;21455;-70
2020/12/03 07:08:54;;;;;;;124.90;51.85;;;;;;;-6.52;78.91;97756.28;1760349;80;21450;-72
2020/12/03 07:12:00;;;;;;;122.72;53.52;;;;;;;-6.47;78.85;97748.67;1760440;81;21471;-71
2020/12/03 07:15:17;;;;;;;123.30;52.53;;;;;;;-6.41;78.45;97755.84;1760168;81;21258;-71
2020/12/03 07:18:09;;;;;;;127.58;54.53;;;;;;;-6.34;78.99;97747.04;1724875;80;21256;-71
2020/12/03 07:20:46;;;;;;;132.63;65.80;;;;;;;-6.26;79.10;97744.83;1760368;81;21157;-72
2020/12/03 07:23:35;;;;;;;156.65;70.78;;;;;;;-6.28;78.89;97741.05;1760403;81;21577;-72
2020/12/03 07:26:03;;;;;;;148.93;66.35;;;;;;;-6.26;78.66;97743.51;1760473;81;21069;-70
2020/12/03 07:28:38;;;;;;;169.55;71.80;;;;;;;-6.39;78.90;97737.55;1760217;80;21419;-72
2020/12/03 07:31:09;;;;;;;122.05;53.35;;;;;;;-6.45;79.17;97751.94;1760204;80;21113;-72
2020/12/03 07:34:12;;;;;;;112.32;48.48;;;;;;;-6.28;78.76;97754.24;1732878;81;21616;-73
2020/12/03 07:36:55;;;;;;;153.20;65.90;;;;;;;-6.15;79.00;97744.87;1760360;81;21113;-70
2020/12/03 07:39:25;;;;;;;160.37;66.62;;;;;;;-6.09;79.34;97729.66;1760323;81;21061;-71
2020/12/03 07:42:02;;;;;;;123.67;52.98;;;;;;;-6.01;79.18;97726.93;1760302;81;22094;-73
2020/12/03 07:44:40;;;;;;;103.97;44.83;;;;;;;-5.80;78.97;97729.64;1760206;81;21066;-72
2020/12/03 07:47:21;;;;;;;111.90;51.30;;;;;;;-5.69;78.71;97725.20;1760394;81;21573;-73
2020/12/03 07:49:53;;;;;;;78.85;33.28;;;;;;;-5.53;78.86;97719.41;1759291;81;21085;-72
2020/12/03 07:52:31;;;;;;;126.02;54.77;;;;;;;-5.36;78.26;97725.30;1759465;81;21109;-73
2020/12/03 07:55:25;;;;;;;86.85;38.95;;;;;;;-5.32;79.04;97719.44;1760463;81;21132;-72
2020/12/03 07:57:58;;;;;;;127.92;51.80;;;;;;;-5.12;79.16;97719.67;1760195;80;21125;-70
2020/12/03 08:00:44;;;;;;;116.77;51.28;;;;;;;-4.92;78.37;97718.55;1760206;81;21130;-70
2020/12/03 08:03:45;;;;;;;86.85;37.40;;;;;;;-4.87;79.07;97716.98;1760288;81;21101;-70
2020/12/03 08:06:31;;;;;;;91.90;37.85;;;;;;;-4.76;78.36;97714.32;1760191;80;21097;-71
2020/12/03 08:09:06;;;;;;;106.70;46.63;;;;;;;-4.66;78.51;97717.96;1760320;81;21546;-71
2020/12/03 08:11:51;;;;;;;129.68;48.40;;;;;;;-4.55;78.42;97709.00;1760303;81;21046;-71
2020/12/03 08:14:52;;;;;;;206.75;81.20;;;;;;;-4.48;78.37;97714.34;1756030;81;21057;-73
2020/12/03 08:17:27;;;;;;;130.97;55.83;;;;;;;-4.41;78.36;97702.50;1759254;81;21125;-70
2020/12/03 08:20:04;;;;;;;145.38;65.05;;;;;;;-4.27;78.20;97698.44;1760391;81;21474;-73
2020/12/03 08:22:41;;;;;;;126.92;57.53;;;;;;;-4.30;77.83;97690.05;1760272;81;21574;-73
2020/12/03 08:25:21;;;;;;;134.05;62.00;;;;;;;-4.15;78.08;97700.55;1760255;81;21134;-70
2020/12/03 08:27:53;;;;;;;125.58;55.92;;;;;;;-4.06;77.98;97692.25;1760313;81;21129;-70
2020/12/03 08:30:34;;;;;;;137.35;59.85;;;;;;;-3.92;77.92;97685.22;1760388;80;21065;-71
2020/12/03 08:33:11;;;;;;;126.87;60.78;;;;;;;-3.85;78.01;97691.33;1760417;80;21204;-71
2020/12/03 08:35:39;;;;;;;155.78;65.75;;;;;;;-3.68;78.06;97683.87;1760381;81;21907;-72
2020/12/03 08:38:06;;;;;;;146.40;67.85;;;;;;;-3.56;78.14;97696.06;1760339;80;21550;-71
2020/12/03 08:40:33;;;;;;;137.35;61.50;;;;;;;-3.40;78.36;97685.13;1760285;80;21538;-72
2020/12/03 08:43:07;;;;;;;154.03;63.45;;;;;;;-3.26;77.91;97690.75;1760319;81;21149;-72
2020/12/03 08:45:40;;;;;;;145.07;65.05;;;;;;;-3.17;77.73;97677.63;1760418;81;21204;-72
2020/12/03 08:48:00;;;;;;;115.03;52.70;;;;;;;-3.14;77.62;97681.73;1760273;80;21064;-73
2020/12/03 08:50:25;;;;;;;112.80;53.48;;;;;;;-3.15;77.06;97686.73;1760313;80;20986;-71
2020/12/03 08:52:51;;;;;;;107.37;50.75;;;;;;;-3.02;77.47;97680.62;1760443;80;20971;-71
2020/12/03 08:55:17;;;;;;;107.43;50.05;;;;;;;-2.96;77.29;97665.24;1696663;81;21129;-71
2020/12/03 08:57:43;;;;;;;103.58;50.12;;;;;;;-2.79;77.49;97666.99;1760424;80;20942;-71
2020/12/03 09:00:14;;;;;;;97.10;45.65;;;;;;;-2.65;77.52;97673.44;1760292;80;21386;-73
2020/12/03 09:02:43;;;;;;;167.77;75.42;;;;;;;-2.47;77.84;97672.00;1760257;81;21148;-72
2020/12/03 09:05:09;;;;;;;169.97;83.67;;;;;;;-2.32;77.44;97668.08;1760332;80;21490;-73
2020/12/03 09:07:39;;;;;;;166.82;83.17;;;;;;;-2.20;77.67;97670.95;1760391;81;20986;-73
2020/12/03 09:10:07;;;;;;;178.15;84.32;;;;;;;-2.06;77.67;97669.06;1759338;80;21481;-73
2020/12/03 09:12:35;;;;;;;136.60;62.93;;;;;;;-1.95;77.69;97667.63;1760338;81;21719;-71
2020/12/03 09:15:07;;;;;;;107.92;54.48;;;;;;;-1.86;77.43;97661.87;1760478;81;21326;-72
2020/12/03 09:17:37;;;;;;;132.65;67.45;;;;;;;-1.82;77.33;97670.23;1760352;81;21176;-72
2020/12/03 09:20:08;;;;;;;133.43;60.92;;;;;;;-1.80;76.61;97665.00;1732842;81;21391;-72
2020/12/03 09:22:37;;;;;;;134.90;59.38;;;;;;;-1.78;76.79;97655.52;1760347;81;21141;-72
2020/12/03 09:25:07;;;;;;;102.12;49.93;;;;;;;-1.68;76.87;97654.56;1760452;81;22044;-72
2020/12/03 09:27:46;;;;;;;130.67;62.33;;;;;;;-1.67;77.02;97650.06;1745642;81;21137;-71
2020/12/03 09:30:24;;;;;;;117.73;58.00;;;;;;;-1.60;77.01;97650.85;1759720;81;21066;-70
2020/12/03 09:32:59;;;;;;;139.70;64.58;;;;;;;-1.57;77.33;97637.95;1760281;80;21287;-71
2020/12/03 09:35:27;;;;;;;223.00;106.05;;;;;;;-1.40;77.56;97642.27;1732420;81;21140;-71
2020/12/03 09:37:59;;;;;;;187.97;87.70;;;;;;;-1.25;77.26;97638.00;1720616;81;21549;-73
2020/12/03 09:40:25;;;;;;;169.82;82.67;;;;;;;-1.14;76.72;97637.30;1760253;81;21146;-70
2020/12/03 09:42:52;;;;;;;202.13;85.85;;;;;;;-1.14;76.35;97626.67;1760324;80;21252;-70
2020/12/03 09:45:21;;;;;;;219.37;91.40;;;;;;;-1.11;76.55;97642.70;1760278;80;21077;-70
2020/12/03 09:47:47;;;;;;;186.85;88.20;;;;;;;-1.01;76.67;97635.91;1760359;80;21110;-71
2020/12/03 09:50:13;;;;;;;183.10;78.55;;;;;;;-0.95;76.33;97636.88;1760324;80;21902;-71
2020/12/03 09:52:44;;;;;;;205.15;93.30;;;;;;;-0.83;76.46;97623.70;1760269;80;21188;-72
2020/12/03 09:55:15;;;;;;;220.48;104.43;;;;;;;-0.79;75.62;97624.38;1760363;81;21074;-72
2020/12/03 09:57:45;;;;;;;204.40;95.07;;;;;;;-0.75;76.17;97620.78;1760273;81;21101;-71
2020/12/03 10:00:14;;;;;;;207.85;97.72;;;;;;;-0.64;76.31;97624.05;1759060;80;21030;-71
2020/12/03 10:03:18;;;;;;;209.90;97.67;;;;;;;-0.58;76.20;97632.51;1732660;81;21133;-71
2020/12/03 10:06:07;;;;;;;208.35;101.15;;;;;;;-0.51;76.18;97619.96;1760167;80;21137;-71
2020/12/03 10:08:57;;;;;;;180.27;83.15;;;;;;;-0.44;76.20;97624.69;1759567;80;21188;-72
2020/12/03 10:11:40;;;;;;;198.43;93.92;;;;;;;-0.41;75.86;97622.94;1732802;81;21149;-72
2020/12/03 10:15:04;;;;;;;139.70;61.85;;;;;;;-0.38;76.03;97622.48;1759374;81;21585;-70
2020/12/03 10:17:54;;;;;;;137.72;64.35;;;;;;;-0.45;74.37;97625.72;1759502;81;22041;-72
2020/12/03 10:20:19;;;;;;;120.75;54.95;;;;;;;-0.51;74.97;97621.78;1760312;81;21058;-71
2020/12/03 10:23:17;;;;;;;116.22;53.30;;;;;;;-0.47;75.54;97615.00;1760432;80;21589;-70
2020/12/03 10:25:51;;;;;;;131.82;57.80;;;;;;;-0.44;75.15;97611.89;1760385;81;21180;-70
2020/12/03 10:28:25;;;;;;;125.00;54.73;;;;;;;-0.49;75.66;97598.45;1760354;81;21108;-71
2020/12/03 10:30:54;;;;;;;125.40;56.15;;;;;;;-0.47;75.50;97603.84;1760291;81;21525;-71
2020/12/03 10:33:21;;;;;;;119.97;58.92;;;;;;;-0.45;75.63;97603.61;1760234;80;21193;-72
2020/12/03 10:35:48;;;;;;;154.68;66.85;;;;;;;-0.40;75.69;97605.11;1760284;81;21508;-72
2020/12/03 10:38:20;;;;;;;134.70;64.15;;;;;;;-0.38;75.50;97593.20;1760342;80;21177;-73
2020/12/03 10:40:55;;;;;;;168.65;74.32;;;;;;;-0.34;75.50;97586.94;1760343;81;21097;-73
2020/12/03 10:43:30;;;;;;;153.47;69.80;;;;;;;-0.35;75.17;97581.28;1760256;81;21236;-70
2020/12/03 10:45:58;;;;;;;163.90;72.60;;;;;;;-0.32;75.32;97583.01;1760250;81;21566;-72
2020/12/03 10:48:30;;;;;;;205.20;86.07;;;;;;;-0.30;74.55;97589.44;1760617;80;21156;-72
2020/12/03 10:51:08;;;;;;;259.98;104.20;;;;;;;-0.33;74.89;97581.91;1742316;81;21389;-72
2020/12/03 10:53:35;;;;;;;296.30;118.80;;;;;;;-0.31;74.32;97587.81;1760341;81;21137;-70
2020/12/03 10:56:05;;;;;;;185.15;80.20;;;;;;;-0.40;74.84;97589.14;1720748;81;21987;-72
2020/12/03 10:58:53;;;;;;;185.45;83.42;;;;;;;-0.55;74.60;97581.49;1759666;80;21117;-73
2020/12/03 11:01:28;;;;;;;270.42;105.87;;;;;;;-0.54;75.11;97584.45;1759414;81;21113;-70
2020/12/03 11:04:04;;;;;;;226.88;95.72;;;;;;;-0.57;75.08;97583.56;1760376;81;21120;-72
2020/12/03 11:06:31;;;;;;;347.80;137.18;;;;;;;-0.63;75.32;97581.25;1745858;81;21550;-72
2020/12/03 11:08:57;;;;;;;217.40;91.17;;;;;;;-0.67;75.06;97575.27;1760301;80;21506;-71
2020/12/03 11:11:23;;;;;;;185.28;85.20;;;;;;;-0.77;75.41;97572.27;1760177;80;21160;-71
2020/12/03 11:13:49;;;;;;;229.95;101.33;;;;;;;-0.79;75.54;97584.47;1760298;81;21164;-71
2020/12/03 11:16:18;;;;;;;181.47;79.47;;;;;;;-0.81;75.69;97575.08;1760208;80;20994;-71
2020/12/03 11:18:47;;;;;;;217.10;95.85;;;;;;;-0.84;75.70;97564.88;1759751;81;21161;-71
2020/12/03 11:21:29;;;;;;;197.15;84.87;;;;;;;-0.83;75.85;97562.00;1760361;80;21189;-72
2020/12/03 11:24:19;;;;;;;257.57;111.03;;;;;;;-0.84;75.86;97561.70;1760245;81;21125;-72
2020/12/03 11:26:45;;;;;;;260.63;120.60;;;;;;;-0.83;76.02;97562.00;1760279;80;21121;-72
2020/12/03 11:29:15;;;;;;;234.20;107.52;;;;;;;-0.78;76.02;97551.50;1745098;81;21165;-70
2020/12/03 11:31:42;;;;;;;242.62;110.70;;;;;;;-0.83;75.84;97556.67;1732580;81;21454;-71
2020/12/03 11:34:08;;;;;;;237.15;103.80;;;;;;;-0.86;75.90;97548.59;1732487;81;21418;-71
2020/12/03 11:36:37;;;;;;;273.45;121.50;;;;;;;-0.82;75.96;97547.66;1760193;81;21014;-73
2020/12/03 11:39:05;;;;;;;;;;;;;;;-0.77;76.13;97545.66;1762916;80;21561;-72
2020/12/03 11:44:11;;;;;;;420.85;170.02;;;;;;;-0.79;76.09;97530.44;1732544;81;20911;-71